createdAt,value
2022-12-25T00:00:32.766Z,86.70
2022-12-25T00:02:59.977Z,92.68
2022-12-25T00:05:26.719Z,59.08
2022-12-25T00:07:53.275Z,66.87
2022-12-25T00:10:20.136Z,56.28
2022-12-25T00:12:46.669Z,50.65
2022-12-25T00:15:13.192Z,66.90
2022-12-25T00:17:39.794Z,64.85
2022-12-25T00:20:07.170Z,85.93
2022-12-25T00:22:33.763Z,91.30
2022-12-25T00:25:00.564Z,58.15
2022-12-25T00:27:27.310Z,75.20
2022-12-25T00:29:53.853Z,104.90
2022-12-25T00:32:23.022Z,108.80
2022-12-25T00:34:49.561Z,73.72
2022-12-25T00:37:18.542Z,84.03
2022-12-25T00:39:45.131Z,94.18
2022-12-25T00:42:20.431Z,68.80
2022-12-25T00:44:49.210Z,57.10
2022-12-25T00:47:16.608Z,70.70
2022-12-25T00:49:43.463Z,63.50
2022-12-25T00:52:10.549Z,77.60
2022-12-25T00:54:37.740Z,49.95
2022-12-25T00:57:04.509Z,70.70
2022-12-25T00:59:32.701Z,49.33
2022-12-25T01:02:23.089Z,52.42
2022-12-25T01:04:54.612Z,68.53
2022-12-25T01:07:22.930Z,47.55
2022-12-25T01:10:08.091Z,63.50
2022-12-25T01:12:37.310Z,53.72
2022-12-25T01:15:10.398Z,68.78
2022-12-25T01:17:37.017Z,45.33
2022-12-25T01:20:04.317Z,59.00
2022-12-25T01:22:33.392Z,48.73
2022-12-25T01:24:59.931Z,50.40
2022-12-25T01:27:26.459Z,48.33
2022-12-25T01:29:52.998Z,57.83
2022-12-25T01:32:19.583Z,46.55
2022-12-25T01:34:53.769Z,45.30
2022-12-25T01:37:22.441Z,48.30
2022-12-25T01:39:52.368Z,44.50
2022-12-25T01:42:21.530Z,45.35
2022-12-25T01:44:48.564Z,47.08
2022-12-25T01:47:16.941Z,47.13
2022-12-25T01:49:46.770Z,61.17
2022-12-25T01:52:23.888Z,49.55
2022-12-25T01:54:57.969Z,45.42
2022-12-25T01:57:36.729Z,41.88
2022-12-25T02:00:04.479Z,63.93
2022-12-25T02:02:31.388Z,53.70
2022-12-25T02:05:01.668Z,49.42
2022-12-25T02:07:29.007Z,43.40
2022-12-25T02:09:55.606Z,54.63
2022-12-25T02:12:33.352Z,44.77
2022-12-25T02:15:07.417Z,50.35
2022-12-25T02:18:00.477Z,58.47
2022-12-25T02:20:39.250Z,45.45
2022-12-25T02:23:55.718Z,46.45
2022-12-25T02:26:49.580Z,41.37
2022-12-25T02:29:23.638Z,50.10
2022-12-25T02:32:13.014Z,49.95
2022-12-25T02:35:02.570Z,50.28
2022-12-25T02:37:52.775Z,47.40
2022-12-25T02:40:25.841Z,59.23
2022-12-25T02:43:25.017Z,61.03
2022-12-25T02:46:31.708Z,50.10
2022-12-25T02:49:21.366Z,52.20
2022-12-25T02:52:53.024Z,44.65
2022-12-25T02:55:43.057Z,54.77
2022-12-25T02:58:32.839Z,51.42
2022-12-25T03:01:24.912Z,55.00
2022-12-25T03:04:15.925Z,50.88
2022-12-25T03:07:11.382Z,57.53
2022-12-25T03:10:20.480Z,56.23
2022-12-25T03:12:54.192Z,66.30
2022-12-25T03:15:39.876Z,76.07
2022-12-25T03:18:12.934Z,65.47
2022-12-25T03:20:58.023Z,63.63
2022-12-25T03:23:48.653Z,53.77
2022-12-25T03:26:34.256Z,56.55
2022-12-25T03:29:00.957Z,63.35
2022-12-25T03:31:48.215Z,117.90
2022-12-25T03:35:06.529Z,63.50
2022-12-25T03:38:07.577Z,46.93
2022-12-25T03:41:10.850Z,44.22
2022-12-25T03:44:21.435Z,24.73
2022-12-25T03:47:13.057Z,51.95
2022-12-25T03:50:05.129Z,22.73
2022-12-25T03:52:50.720Z,38.50
2022-12-25T03:55:36.274Z,43.40
2022-12-25T03:58:21.730Z,38.00
2022-12-25T04:01:06.588Z,31.85
2022-12-25T04:03:51.773Z,31.67
2022-12-25T04:06:38.415Z,40.07
2022-12-25T04:09:23.587Z,39.35
2022-12-25T04:12:10.133Z,43.88
2022-12-25T04:14:55.460Z,38.90
2022-12-25T04:17:40.340Z,41.60
2022-12-25T04:20:26.190Z,34.77
2022-12-25T04:23:11.672Z,34.38
2022-12-25T04:25:56.565Z,43.25
2022-12-25T04:28:42.379Z,28.50
2022-12-25T04:31:27.895Z,38.40
2022-12-25T04:34:14.458Z,46.47
2022-12-25T04:36:41.026Z,38.05
2022-12-25T04:39:11.019Z,43.88
2022-12-25T04:41:40.458Z,37.53
2022-12-25T04:44:07.034Z,39.08
2022-12-25T04:46:33.617Z,38.63
2022-12-25T04:49:01.275Z,36.35
2022-12-25T04:51:28.135Z,31.70
2022-12-25T04:53:54.832Z,31.02
2022-12-25T04:56:21.941Z,36.95
2022-12-25T04:58:50.951Z,31.33
2022-12-25T05:01:19.396Z,43.00
2022-12-25T05:03:46.089Z,30.08
2022-12-25T05:06:12.802Z,34.67
2022-12-25T05:08:39.358Z,30.25
2022-12-25T05:11:12.677Z,30.93
2022-12-25T05:13:39.390Z,32.55
2022-12-25T05:16:08.481Z,32.33
2022-12-25T05:18:35.476Z,34.30
2022-12-25T05:21:05.296Z,30.40
2022-12-25T05:23:33.006Z,32.30
2022-12-25T05:26:01.847Z,29.48
2022-12-25T05:28:28.663Z,28.95
2022-12-25T05:31:00.000Z,70.13
2022-12-25T05:33:26.664Z,30.77
2022-12-25T05:35:53.260Z,31.17
2022-12-25T05:38:19.807Z,33.92
2022-12-25T05:40:47.523Z,26.15
2022-12-25T05:43:14.209Z,37.33
2022-12-25T05:45:40.724Z,47.97
2022-12-25T05:48:07.238Z,31.80
2022-12-25T05:50:37.637Z,43.15
2022-12-25T05:53:09.398Z,37.40
2022-12-25T05:55:40.989Z,40.65
2022-12-25T05:58:08.351Z,33.78
2022-12-25T06:00:34.953Z,43.70
2022-12-25T06:03:02.662Z,34.00
2022-12-25T06:05:29.369Z,47.60
2022-12-25T06:07:56.448Z,40.65
2022-12-25T06:10:24.312Z,41.92
2022-12-25T06:12:50.827Z,49.07
2022-12-25T06:15:17.429Z,44.47
2022-12-25T06:17:43.991Z,52.40
2022-12-25T06:20:10.725Z,51.83
2022-12-25T06:22:38.468Z,56.55
2022-12-25T06:25:05.690Z,67.63
2022-12-25T06:27:32.219Z,32.38
2022-12-25T06:29:59.991Z,60.25
2022-12-25T06:32:27.038Z,73.70
2022-12-25T06:34:53.823Z,55.78
2022-12-25T06:37:25.507Z,33.07
2022-12-25T06:39:54.808Z,90.35
2022-12-25T06:42:21.381Z,62.75
2022-12-25T06:44:48.226Z,99.20
2022-12-25T06:47:14.841Z,85.95
2022-12-25T06:49:42.026Z,64.00
2022-12-25T06:52:08.838Z,85.30
2022-12-25T06:54:37.554Z,78.05
2022-12-25T06:57:05.384Z,62.97
2022-12-25T06:59:32.253Z,63.10
2022-12-25T07:01:59.271Z,67.60
2022-12-25T07:04:37.062Z,28.35
2022-12-25T07:07:09.051Z,77.85
2022-12-25T07:09:39.463Z,152.27
2022-12-25T07:12:06.998Z,76.00
2022-12-25T07:14:33.527Z,113.83
2022-12-25T07:17:00.177Z,52.67
2022-12-25T07:19:27.016Z,101.93
2022-12-25T07:21:53.533Z,123.18
2022-12-25T07:24:21.610Z,68.45
2022-12-25T07:26:50.961Z,101.93
2022-12-25T07:29:19.543Z,82.65
2022-12-25T07:31:46.840Z,89.07
2022-12-25T07:34:13.383Z,69.28
2022-12-25T07:36:39.906Z,122.18
2022-12-25T07:39:06.418Z,99.17
2022-12-25T07:41:33.520Z,131.25
2022-12-25T07:44:00.099Z,144.45
2022-12-25T07:46:27.147Z,144.10
2022-12-25T07:48:55.360Z,106.97
2022-12-25T07:51:21.953Z,96.50
2022-12-25T07:53:48.523Z,110.32
2022-12-25T07:56:17.250Z,114.43
2022-12-25T07:58:46.302Z,91.78
2022-12-25T08:01:21.855Z,145.90
2022-12-25T08:03:54.700Z,92.97
2022-12-25T08:06:23.266Z,101.35
2022-12-25T08:08:50.065Z,105.75
2022-12-25T08:11:16.849Z,88.00
2022-12-25T08:13:45.967Z,101.55
2022-12-25T08:16:13.067Z,108.60
2022-12-25T08:18:40.604Z,90.10
2022-12-25T08:21:09.930Z,80.57
2022-12-25T08:23:40.595Z,108.13
2022-12-25T08:26:11.032Z,110.78
2022-12-25T08:28:39.054Z,71.27
2022-12-25T08:31:10.573Z,79.45
2022-12-25T08:33:37.951Z,80.05
2022-12-25T08:36:06.725Z,76.38
2022-12-25T08:38:33.913Z,87.43
2022-12-25T08:41:00.510Z,73.23
2022-12-25T08:43:27.158Z,73.63
2022-12-25T08:45:53.732Z,88.43
2022-12-25T08:48:20.356Z,77.50
2022-12-25T08:50:48.816Z,78.13
2022-12-25T08:53:15.743Z,79.63
2022-12-25T08:55:42.400Z,86.40
2022-12-25T08:58:09.667Z,74.72
2022-12-25T09:00:36.691Z,82.72
2022-12-25T09:03:06.565Z,76.47
2022-12-25T09:05:37.392Z,68.57
2022-12-25T09:08:04.273Z,71.70
2022-12-25T09:10:31.012Z,74.47
2022-12-25T09:12:57.569Z,74.28
2022-12-25T09:15:25.260Z,67.93
2022-12-25T09:17:52.477Z,69.47
2022-12-25T09:20:21.758Z,69.97
2022-12-25T09:22:49.437Z,70.65
2022-12-25T09:25:16.093Z,69.53
2022-12-25T09:27:43.641Z,65.53
2022-12-25T09:30:10.999Z,62.47
2022-12-25T09:32:41.985Z,75.35
2022-12-25T09:35:09.656Z,76.97
2022-12-25T09:37:41.352Z,82.45
2022-12-25T09:40:08.665Z,71.85
2022-12-25T09:42:35.315Z,77.00
2022-12-25T09:45:07.099Z,79.88
2022-12-25T09:47:36.058Z,76.38
2022-12-25T09:51:04.431Z,81.03
2022-12-25T09:53:40.656Z,72.35
2022-12-25T09:56:11.549Z,70.30
2022-12-25T09:58:40.617Z,79.22
2022-12-25T10:01:39.171Z,79.80
2022-12-25T10:04:27.657Z,79.53
2022-12-25T10:07:06.286Z,80.88
2022-12-25T10:09:45.415Z,89.70
2022-12-25T10:12:50.514Z,82.05
2022-12-25T10:15:30.700Z,79.43
2022-12-25T10:18:25.115Z,79.72
2022-12-25T10:20:53.950Z,72.90
2022-12-25T10:23:32.675Z,72.97
2022-12-25T10:25:59.292Z,68.35
2022-12-25T10:28:34.272Z,77.13
2022-12-25T10:31:21.221Z,79.65
2022-12-25T10:33:49.689Z,75.53
2022-12-25T10:36:19.641Z,74.37
2022-12-25T10:38:47.448Z,70.28
2022-12-25T10:41:27.563Z,75.55
2022-12-25T10:43:56.284Z,78.78
2022-12-25T10:46:26.228Z,78.55
2022-12-25T10:48:58.825Z,72.43
2022-12-25T10:51:34.916Z,85.03
2022-12-25T10:54:26.141Z,73.40
2022-12-25T10:56:57.257Z,84.32
2022-12-25T10:59:25.940Z,83.53
2022-12-25T11:01:55.401Z,75.57
2022-12-25T11:04:28.500Z,84.03
2022-12-25T11:07:18.259Z,99.75
2022-12-25T11:10:05.356Z,77.68
2022-12-25T11:12:43.396Z,87.57
2022-12-25T11:16:04.634Z,99.00
2022-12-25T11:18:50.914Z,78.18
2022-12-25T11:21:31.703Z,116.50
2022-12-25T11:24:01.381Z,91.60
2022-12-25T11:26:29.703Z,90.82
2022-12-25T11:28:56.478Z,92.07
2022-12-25T11:31:30.535Z,104.20
2022-12-25T11:34:05.682Z,98.63
2022-12-25T11:36:49.612Z,102.18
2022-12-25T11:39:30.692Z,94.40
2022-12-25T11:42:03.255Z,106.20
2022-12-25T11:44:45.491Z,109.18
2022-12-25T11:47:35.303Z,107.78
2022-12-25T11:50:31.140Z,106.30
2022-12-25T11:53:02.620Z,93.22
2022-12-25T11:55:41.897Z,110.40
2022-12-25T11:58:39.171Z,95.07
2022-12-25T12:01:15.923Z,111.30
2022-12-25T12:03:43.186Z,106.32
2022-12-25T12:06:28.330Z,100.70
2022-12-25T12:09:05.559Z,92.57
2022-12-25T12:12:17.598Z,103.60
2022-12-25T12:15:49.047Z,88.68
2022-12-25T12:18:15.597Z,91.72
2022-12-25T12:20:42.241Z,109.57
2022-12-25T12:23:14.607Z,137.63
2022-12-25T12:25:44.897Z,105.20
2022-12-25T12:28:22.040Z,120.82
2022-12-25T12:31:00.436Z,104.45
2022-12-25T12:33:31.561Z,92.20
2022-12-25T12:35:58.358Z,129.93
2022-12-25T12:38:25.528Z,60.85
2022-12-25T12:40:54.422Z,111.78
2022-12-25T12:43:38.302Z,150.27
2022-12-25T12:46:49.614Z,133.75
2022-12-25T12:49:26.750Z,108.13
2022-12-25T12:52:08.210Z,98.43
2022-12-25T12:54:51.797Z,145.50
2022-12-25T12:57:27.139Z,162.88
2022-12-25T12:59:54.954Z,134.85
2022-12-25T13:02:44.740Z,121.53
2022-12-25T13:05:14.413Z,124.53
2022-12-25T13:07:50.149Z,110.32
2022-12-25T13:10:29.094Z,111.18
2022-12-25T13:12:59.980Z,138.93
2022-12-25T13:15:29.349Z,148.73
2022-12-25T13:18:02.576Z,111.82
2022-12-25T13:20:41.596Z,129.13
2022-12-25T13:23:16.233Z,104.38
2022-12-25T13:25:45.461Z,157.02
2022-12-25T13:28:14.687Z,145.50
2022-12-25T13:30:41.408Z,136.85
2022-12-25T13:33:14.966Z,155.90
2022-12-25T13:35:44.735Z,226.65
2022-12-25T13:38:20.000Z,154.02
2022-12-25T13:41:15.388Z,114.17
2022-12-25T13:43:43.541Z,138.18
2022-12-25T13:46:14.730Z,136.65
2022-12-25T13:48:42.464Z,139.65
2022-12-25T13:51:14.910Z,120.85
2022-12-25T13:53:41.570Z,143.90
2022-12-25T13:56:13.726Z,129.85
2022-12-25T13:58:40.399Z,122.78
2022-12-25T14:01:11.192Z,99.07
2022-12-25T14:03:42.726Z,161.27
2022-12-25T14:06:20.167Z,157.50
2022-12-25T14:08:47.655Z,107.22
2022-12-25T14:11:20.677Z,110.38
2022-12-25T14:13:49.208Z,88.28
2022-12-25T14:16:17.747Z,113.13
2022-12-25T14:18:58.562Z,95.33
2022-12-25T14:21:32.621Z,101.35
2022-12-25T14:23:59.811Z,102.57
2022-12-25T14:29:40.574Z,76.50
2022-12-25T14:32:08.449Z,114.50
2022-12-25T14:34:35.036Z,94.82
2022-12-25T14:37:03.541Z,88.20
2022-12-25T14:39:35.421Z,182.85
2022-12-25T14:42:20.995Z,135.55
2022-12-25T14:45:26.466Z,137.40
2022-12-25T14:48:03.027Z,158.70
2022-12-25T14:50:40.123Z,146.65
2022-12-25T14:53:24.590Z,185.30
2022-12-25T14:55:56.093Z,162.07
2022-12-25T14:58:26.819Z,86.93
2022-12-25T15:01:05.795Z,143.20
2022-12-25T15:03:37.368Z,143.93
2022-12-25T15:06:06.975Z,143.27
2022-12-25T15:08:38.124Z,139.57
2022-12-25T15:11:10.618Z,95.90
2022-12-25T15:13:41.980Z,174.98
2022-12-25T15:16:25.843Z,132.32
2022-12-25T15:19:03.233Z,137.25
2022-12-25T15:21:34.986Z,175.23
2022-12-25T15:24:08.630Z,101.97
2022-12-25T15:26:37.498Z,153.95
2022-12-25T15:29:12.893Z,216.95
2022-12-25T15:31:49.992Z,177.43
2022-12-25T15:34:48.151Z,141.20
2022-12-25T15:37:26.183Z,176.60
2022-12-25T15:39:53.647Z,193.30
2022-12-25T15:42:25.248Z,144.20
2022-12-25T15:44:59.718Z,150.40
2022-12-25T15:47:26.578Z,103.00
2022-12-25T15:49:53.585Z,165.70
2022-12-25T15:52:21.250Z,164.77
2022-12-25T15:54:51.149Z,157.02
2022-12-25T15:57:22.225Z,141.77
2022-12-25T15:59:49.082Z,120.47
2022-12-25T16:02:18.049Z,110.30
2022-12-25T16:04:45.360Z,130.77
2022-12-25T16:07:17.741Z,150.68
2022-12-25T16:09:49.744Z,104.10
2022-12-25T16:12:19.590Z,117.15
2022-12-25T16:14:48.085Z,117.03
2022-12-25T16:17:16.342Z,140.45
2022-12-25T16:19:44.634Z,159.88
2022-12-25T16:22:21.677Z,133.30
2022-12-25T16:24:51.778Z,148.30
2022-12-25T16:27:21.330Z,149.97
2022-12-25T16:29:48.965Z,118.00
2022-12-25T16:32:32.784Z,198.68
2022-12-25T16:35:00.829Z,138.77
2022-12-25T16:37:27.638Z,190.18
2022-12-25T16:39:54.144Z,235.63
2022-12-25T16:42:20.934Z,198.40
2022-12-25T16:44:47.454Z,198.68
2022-12-25T16:47:14.176Z,213.80
2022-12-25T16:49:40.759Z,209.63
2022-12-25T16:52:07.244Z,196.43
2022-12-25T16:54:33.912Z,210.13
2022-12-25T16:57:01.928Z,215.80
2022-12-25T16:59:29.628Z,203.68
2022-12-25T17:01:56.351Z,209.00
2022-12-25T17:04:22.990Z,196.30
2022-12-25T17:06:49.652Z,206.95
2022-12-25T17:09:16.216Z,213.32
2022-12-25T17:11:42.865Z,196.23
2022-12-25T17:14:14.667Z,199.85
2022-12-25T17:16:42.164Z,204.57
2022-12-25T17:19:18.696Z,248.98
2022-12-25T17:21:47.710Z,321.88
2022-12-25T17:24:15.191Z,286.33
2022-12-25T17:26:47.808Z,239.20
2022-12-25T17:29:21.470Z,188.87
2022-12-25T17:31:48.913Z,286.35
2022-12-25T17:34:15.582Z,66.25
2022-12-25T17:36:42.122Z,167.88
2022-12-25T17:39:10.250Z,273.83
2022-12-25T17:41:37.090Z,274.37
2022-12-25T17:44:05.828Z,233.82
2022-12-25T17:46:38.851Z,261.50
2022-12-25T17:49:05.998Z,217.68
2022-12-25T17:51:32.848Z,260.10
2022-12-25T17:54:05.809Z,130.07
2022-12-25T17:56:33.215Z,215.48
2022-12-25T17:59:03.617Z,278.55
2022-12-25T18:01:30.300Z,233.60
2022-12-25T18:03:59.306Z,249.63
2022-12-25T18:06:27.836Z,272.97
2022-12-25T18:08:57.873Z,208.40
2022-12-25T18:11:29.090Z,168.55
2022-12-25T18:13:57.975Z,190.05
2022-12-25T18:16:26.509Z,277.65
2022-12-25T18:18:53.492Z,256.77
2022-12-25T18:21:21.312Z,188.38
2022-12-25T18:23:48.065Z,260.85
2022-12-25T18:26:16.999Z,236.73
2022-12-25T18:28:43.948Z,253.27
2022-12-25T18:31:13.716Z,167.60
2022-12-25T18:33:40.796Z,326.50
2022-12-25T18:36:10.222Z,202.85
2022-12-25T18:38:39.712Z,206.32
2022-12-25T18:41:07.849Z,247.88
2022-12-25T18:43:52.320Z,202.07
2022-12-25T18:46:22.357Z,211.48
2022-12-25T18:48:49.194Z,227.88
2022-12-25T18:51:15.771Z,193.43
2022-12-25T18:53:43.776Z,185.40
2022-12-25T18:56:15.531Z,200.87
2022-12-25T18:58:42.309Z,133.63
2022-12-25T19:01:19.374Z,198.05
2022-12-25T19:03:48.406Z,190.18
2022-12-25T19:06:28.945Z,188.13
2022-12-25T19:08:57.330Z,189.50
2022-12-25T19:11:23.863Z,184.38
2022-12-25T19:13:50.441Z,197.75
2022-12-25T19:16:17.116Z,193.63
2022-12-25T19:18:45.985Z,198.13
2022-12-25T19:21:12.652Z,191.87
2022-12-25T19:23:40.625Z,206.13
2022-12-25T19:26:08.824Z,159.73
2022-12-25T19:28:36.500Z,127.38
2022-12-25T19:31:04.279Z,168.27
2022-12-25T19:33:31.897Z,168.40
2022-12-25T19:36:05.004Z,176.50
2022-12-25T19:38:31.653Z,173.73
2022-12-25T19:41:01.272Z,183.70
2022-12-25T19:43:34.888Z,254.45
2022-12-25T19:46:02.519Z,203.73
2022-12-25T19:48:30.012Z,226.05
2022-12-25T19:51:31.219Z,242.10
2022-12-25T19:53:57.942Z,252.43
2022-12-25T19:56:26.464Z,223.05
2022-12-25T19:58:54.413Z,158.40
2022-12-25T20:01:23.516Z,266.20
2022-12-25T20:04:18.171Z,166.23
2022-12-25T20:06:44.977Z,220.20
2022-12-25T20:09:14.270Z,241.30
2022-12-25T20:11:50.285Z,107.77
2022-12-25T20:14:21.075Z,162.90
2022-12-25T20:16:47.707Z,275.98
2022-12-25T20:19:14.751Z,189.38
2022-12-25T20:21:42.513Z,255.70
2022-12-25T20:24:11.344Z,300.63
2022-12-25T20:26:40.965Z,386.35
2022-12-25T20:29:07.722Z,342.67
2022-12-25T20:31:35.546Z,356.60
2022-12-25T20:34:09.842Z,310.75
2022-12-25T20:36:40.330Z,334.63
2022-12-25T20:39:09.599Z,265.95
2022-12-25T20:41:37.014Z,272.58
2022-12-25T20:44:04.285Z,260.85
2022-12-25T20:46:32.388Z,266.38
2022-12-25T20:48:58.992Z,212.47
2022-12-25T20:51:27.194Z,221.88
2022-12-25T20:53:54.463Z,291.27
2022-12-25T20:56:24.085Z,331.98
2022-12-25T20:58:58.801Z,303.25
2022-12-25T21:01:25.747Z,256.20
2022-12-25T21:03:53.158Z,208.45
2022-12-25T21:06:20.195Z,132.80
2022-12-25T21:08:46.810Z,201.93
2022-12-25T21:11:15.647Z,177.40
2022-12-25T21:13:43.592Z,308.93
2022-12-25T21:16:13.252Z,421.83
2022-12-25T21:18:39.812Z,248.50
2022-12-25T21:21:07.927Z,328.90
2022-12-25T21:23:35.676Z,356.52
2022-12-25T21:26:24.178Z,312.50
2022-12-25T21:29:54.524Z,271.73
2022-12-25T21:32:42.462Z,356.27
2022-12-25T21:35:10.439Z,315.83
2022-12-25T21:37:36.993Z,345.00
2022-12-25T21:40:04.314Z,381.40
2022-12-25T21:42:30.890Z,326.92
2022-12-25T21:44:57.454Z,332.45
2022-12-25T21:47:24.013Z,306.05
2022-12-25T21:50:11.099Z,320.25
2022-12-25T21:52:37.666Z,292.00
2022-12-25T21:55:04.392Z,312.45
2022-12-25T21:57:33.281Z,297.95
2022-12-25T22:00:00.154Z,360.08
2022-12-25T22:02:27.117Z,384.60
2022-12-25T22:04:53.846Z,334.37
2022-12-25T22:07:22.152Z,360.75
2022-12-25T22:09:52.733Z,324.27
2022-12-25T22:12:38.789Z,348.00
2022-12-25T22:15:10.218Z,312.23
2022-12-25T22:18:01.069Z,364.47
2022-12-25T22:20:34.643Z,392.10
2022-12-25T22:23:03.127Z,280.98
2022-12-25T22:25:29.732Z,321.10
2022-12-25T22:27:56.292Z,306.38
2022-12-25T22:30:34.189Z,373.80
2022-12-25T22:33:05.176Z,268.73
2022-12-25T22:35:33.772Z,286.70
2022-12-25T22:38:01.538Z,168.57
2022-12-25T22:40:28.114Z,197.38
2022-12-25T22:42:56.452Z,219.27
2022-12-25T22:45:23.742Z,292.80
2022-12-25T22:47:52.309Z,232.93
2022-12-25T22:50:18.862Z,160.05
2022-12-25T22:52:51.265Z,185.63
2022-12-25T22:55:20.905Z,214.33
2022-12-25T22:57:48.909Z,216.55
2022-12-25T23:00:15.934Z,108.47
2022-12-25T23:02:42.730Z,184.02
2022-12-25T23:05:10.701Z,253.90
2022-12-25T23:07:41.948Z,118.07
2022-12-25T23:10:11.770Z,225.88
2022-12-25T23:12:56.925Z,96.45
2022-12-25T23:15:24.529Z,101.07
2022-12-25T23:18:10.039Z,256.90
2022-12-25T23:20:55.339Z,202.33
2022-12-25T23:23:40.304Z,203.50
2022-12-25T23:26:09.778Z,226.02
2022-12-25T23:28:56.895Z,246.43
2022-12-25T23:31:27.793Z,202.05
2022-12-25T23:33:54.740Z,148.53
2022-12-25T23:36:23.920Z,217.38
2022-12-25T23:38:52.020Z,303.90
2022-12-25T23:41:19.734Z,175.40
2022-12-25T23:43:46.283Z,265.83
2022-12-25T23:46:12.878Z,205.47
2022-12-25T23:48:39.441Z,320.23
2022-12-25T23:51:07.827Z,171.55
2022-12-25T23:53:35.223Z,303.30
2022-12-25T23:56:02.094Z,385.65
2022-12-25T23:58:29.307Z,214.60
